Time;durP1;ratioP1;P1;durP2;ratioP2;P2;SDS_P1;SDS_P2;PMS_P1;PMS_P2;Temp;Humidity;BMP_temperature;BMP_pressure;BME280_temperature;BME280_humidity;BME280_pressure;Samples;Min_cycle;Max_cycle;Signal;HPM_P1;HPM_P2
2022/11/08 04:01:47;;;;;;;0.63;0.60;;;9.50;80.80;;;;;;5633025;22;20975;-77
2022/11/08 04:04:14;;;;;;;0.80;0.80;;;9.50;81.30;;;;;;5074691;28;20445;-78
2022/11/08 04:06:41;;;;;;;0.70;0.70;;;9.50;82.30;;;;;;5074284;28;20438;-78
2022/11/08 04:09:07;;;;;;;0.60;0.60;;;9.40;82.70;;;;;;5074857;28;20452;-77
2022/11/08 04:17:04;;;;;;;0.80;0.60;;;9.40;84.80;;;;;;5075673;28;20456;-77
2022/11/08 04:22:16;;;;;;;0.70;0.70;;;9.50;84.90;;;;;;5074231;28;20437;-78
2022/11/08 04:24:42;;;;;;;0.70;0.70;;;9.40;85.20;;;;;;5073957;28;20937;-77
2022/11/08 04:27:09;;;;;;;0.70;0.70;;;9.40;85.40;;;;;;5074187;28;20449;-77
2022/11/08 04:29:36;;;;;;;0.70;0.70;;;9.40;85.40;;;;;;5074106;28;20998;-77
2022/11/08 04:32:04;;;;;;;0.60;0.60;;;9.40;85.80;;;;;;5074786;28;20490;-77
2022/11/08 04:34:31;;;;;;;0.70;0.60;;;9.50;85.30;;;;;;5074520;28;20442;-77
2022/11/08 04:36:57;;;;;;;0.70;0.70;;;9.60;84.60;;;;;;5073744;28;20929;-77
2022/11/08 04:39:24;;;;;;;0.80;0.77;;;9.70;83.90;;;;;;5073945;28;20457;-77
2022/11/08 04:41:51;;;;;;;0.60;0.60;;;9.80;83.40;;;;;;5073560;28;21003;-78
2022/11/08 04:44:18;;;;;;;0.90;0.60;;;9.90;83.20;;;;;;5073847;28;20449;-77
2022/11/08 04:46:44;;;;;;;1.07;0.80;;;9.90;82.80;;;;;;5073441;28;20457;-77
2022/11/08 04:49:12;;;;;;;0.70;0.60;;;9.90;82.60;;;;;;5073829;28;20453;-77
2022/11/08 04:51:39;;;;;;;0.70;0.63;;;9.90;82.40;;;;;;5073639;28;20461;-77
2022/11/08 04:54:06;;;;;;;0.60;0.60;;;9.90;82.20;;;;;;5073725;28;20520;-77
2022/11/08 04:56:33;;;;;;;1.33;1.17;;;9.90;82.50;;;;;;5073938;28;20442;-78
2022/11/08 04:59:00;;;;;;;0.70;0.70;;;9.80;82.70;;;;;;5073971;28;20446;-77
2022/11/08 05:01:29;;;;;;;0.80;0.60;;;9.70;83.20;;;;;;5073426;28;20474;-77
2022/11/08 05:03:57;;;;;;;0.60;0.60;;;9.60;83.70;;;;;;5073628;28;20445;-76
2022/11/08 05:06:26;;;;;;;1.03;0.60;;;9.40;84.40;;;;;;5073037;28;20812;-76
2022/11/08 05:08:54;;;;;;;0.60;0.60;;;9.30;84.90;;;;;;5073572;28;20450;-76
2022/11/08 05:11:23;;;;;;;0.73;0.73;;;9.20;85.30;;;;;;5073609;28;20486;-78
2022/11/08 05:13:50;;;;;;;0.60;0.60;;;9.10;85.60;;;;;;5073715;28;20477;-77
2022/11/08 05:16:19;;;;;;;0.60;0.60;;;9.20;85.60;;;;;;5073466;28;20458;-76
2022/11/08 05:18:46;;;;;;;0.70;0.63;;;9.20;85.50;;;;;;5073125;28;20454;-77
2022/11/08 05:24:03;;;;;;;0.90;0.80;;;9.20;85.50;;;;;;5073231;28;20401;-77
2022/11/08 05:26:32;;;;;;;0.70;0.70;;;9.20;85.50;;;;;;5073440;28;20433;-77
2022/11/08 05:28:59;;;;;;;0.70;0.70;;;9.30;87.40;;;;;;5073824;28;20452;-77
2022/11/08 05:31:26;;;;;;;0.70;0.70;;;9.40;87.90;;;;;;5075835;28;20461;-77
2022/11/08 05:33:53;;;;;;;0.70;0.70;;;9.40;85.90;;;;;;5073691;28;20477;-77
2022/11/08 05:36:20;;;;;;;0.70;0.70;;;9.40;85.10;;;;;;5073577;28;20814;-77
2022/11/08 05:38:46;;;;;;;0.60;0.60;;;9.40;85.00;;;;;;5073066;28;20960;-77
2022/11/08 05:41:16;;;;;;;0.70;0.70;;;9.40;85.20;;;;;;5073130;28;20462;-77
2022/11/08 05:43:47;;;;;;;0.80;0.80;;;9.40;85.10;;;;;;5073797;28;20448;-77
2022/11/08 05:46:14;;;;;;;0.60;0.60;;;9.50;84.50;;;;;;5073609;28;20430;-77
2022/11/08 05:48:42;;;;;;;0.80;0.80;;;9.50;84.10;;;;;;5073440;28;20465;-77
2022/11/08 05:51:09;;;;;;;0.70;0.70;;;9.50;84.10;;;;;;5073393;28;20557;-77
2022/11/08 05:53:36;;;;;;;0.60;0.60;;;9.40;84.20;;;;;;5073299;28;20596;-76
2022/11/08 05:56:03;;;;;;;0.73;0.70;;;9.40;84.20;;;;;;5073344;28;20442;-77
2022/11/08 05:58:34;;;;;;;0.80;0.80;;;9.50;84.20;;;;;;5073842;28;20446;-77
2022/11/08 06:01:01;;;;;;;0.90;0.80;;;9.50;83.90;;;;;;5072809;28;20843;-78
2022/11/08 06:03:29;;;;;;;0.70;0.60;;;9.50;83.60;;;;;;5073263;28;20427;-77
2022/11/08 06:06:16;;;;;;;0.73;0.73;;;9.30;84.30;;;;;;5073041;28;20445;-77
2022/11/08 06:08:43;;;;;;;0.60;0.60;;;9.30;84.60;;;;;;5073929;28;20450;-78
2022/11/08 06:11:12;;;;;;;0.70;0.70;;;9.30;84.90;;;;;;5072730;28;20540;-77
2022/11/08 06:13:40;;;;;;;0.60;0.57;;;9.20;84.90;;;;;;5072915;28;20473;-77
2022/11/08 06:16:10;;;;;;;0.70;0.70;;;9.10;85.50;;;;;;5073753;28;20453;-78
2022/11/08 06:18:38;;;;;;;0.60;0.60;;;9.10;85.80;;;;;;5076699;28;20447;-76
2022/11/08 06:21:06;;;;;;;0.60;0.60;;;9.10;86.80;;;;;;5076290;28;20473;-77
2022/11/08 06:23:33;;;;;;;0.73;0.73;;;9.10;85.90;;;;;;5076630;28;20442;-77
2022/11/08 06:26:00;;;;;;;0.60;0.60;;;9.20;85.50;;;;;;5076493;28;20445;-77
2022/11/08 06:28:28;;;;;;;0.70;0.60;;;9.20;85.60;;;;;;5076766;28;20445;-78
2022/11/08 06:30:58;;;;;;;0.70;0.70;;;9.20;85.50;;;;;;5076385;28;20481;-77
2022/11/08 06:33:24;;;;;;;0.63;0.60;;;9.30;85.40;;;;;;5076446;28;20469;-77
2022/11/08 06:35:51;;;;;;;0.70;0.70;;;9.50;85.10;;;;;;5076353;28;20473;-77
2022/11/08 06:38:18;;;;;;;0.70;0.70;;;9.60;84.50;;;;;;5076233;28;20452;-77
2022/11/08 06:40:45;;;;;;;0.90;0.90;;;9.60;84.30;;;;;;5076161;28;20473;-78
2022/11/08 06:43:12;;;;;;;0.60;0.60;;;9.60;84.40;;;;;;5076242;28;20453;-77
2022/11/08 06:45:39;;;;;;;0.70;0.70;;;9.80;84.10;;;;;;5075827;28;20823;-77
2022/11/08 06:48:08;;;;;;;0.70;0.70;;;10.10;83.40;;;;;;5076163;28;20449;-78
2022/11/08 06:50:36;;;;;;;0.80;0.70;;;10.60;81.70;;;;;;5076025;28;20438;-78
2022/11/08 06:53:05;;;;;;;0.60;0.60;;;11.30;81.00;;;;;;5076321;28;20484;-78
2022/11/08 06:55:32;;;;;;;0.70;0.70;;;12.40;77.20;;;;;;5077113;28;20464;-79
2022/11/08 06:57:59;;;;;;;0.67;0.67;;;13.80;73.20;;;;;;5076132;28;20867;-78
2022/11/08 07:00:26;;;;;;;0.70;0.70;;;14.80;68.90;;;;;;5077325;28;20458;-75
2022/11/08 07:02:53;;;;;;;0.70;0.70;;;14.90;67.10;;;;;;5075482;28;20465;-77
2022/11/08 07:05:21;;;;;;;0.70;0.70;;;14.40;67.70;;;;;;5075725;28;20450;-76
2022/11/08 07:07:50;;;;;;;0.73;0.73;;;13.90;69.70;;;;;;5075505;28;20446;-76
2022/11/08 07:10:18;;;;;;;0.70;0.70;;;14.10;68.30;;;;;;5075357;28;20446;-77
2022/11/08 07:12:44;;;;;;;0.60;0.60;;;13.70;70.10;;;;;;5075381;28;20485;-77
2022/11/08 07:15:11;;;;;;;0.70;0.70;;;14.50;69.40;;;;;;5075624;28;20446;-77
2022/11/08 07:17:38;;;;;;;0.60;0.60;;;15.10;66.70;;;;;;5075583;28;20442;-77
2022/11/08 07:20:06;;;;;;;0.70;0.60;;;15.00;65.90;;;;;;5075535;28;20816;-77
2022/11/08 07:22:34;;;;;;;0.70;0.70;;;14.90;67.40;;;;;;5075701;28;20465;-77
2022/11/08 07:25:01;;;;;;;0.60;0.60;;;14.90;66.70;;;;;;5076695;28;20453;-77
2022/11/08 07:27:28;;;;;;;0.60;0.60;;;15.20;66.10;;;;;;5075277;28;20449;-78
2022/11/08 07:29:55;;;;;;;0.70;0.70;;;15.20;66.10;;;;;;5075225;28;20445;-76
2022/11/08 07:32:22;;;;;;;0.60;0.60;;;15.40;66.10;;;;;;5075273;28;20458;-78
2022/11/08 07:34:49;;;;;;;0.67;0.67;;;15.90;66.00;;;;;;5075351;28;20450;-78
2022/11/08 07:37:15;;;;;;;0.70;0.70;;;16.50;62.90;;;;;;5074944;28;20963;-76
2022/11/08 07:39:43;;;;;;;0.77;0.60;;;16.10;62.70;;;;;;5075182;28;20448;-77
2022/11/08 07:42:10;;;;;;;1.20;0.70;;;15.60;64.20;;;;;;5075276;28;20461;-76
2022/11/08 07:44:37;;;;;;;0.73;0.73;;;15.40;65.00;;;;;;5075106;28;20453;-77
2022/11/08 07:47:03;;;;;;;0.60;0.60;;;15.10;65.40;;;;;;5075913;28;20453;-77
2022/11/08 07:49:30;;;;;;;0.80;0.80;;;14.80;66.60;;;;;;5075014;28;20453;-77
2022/11/08 07:51:57;;;;;;;0.80;0.80;;;14.30;68.70;;;;;;5075401;28;20466;-76
2022/11/08 07:54:24;;;;;;;0.70;0.70;;;14.80;68.40;;;;;;5075979;28;20485;-77
2022/11/08 07:56:52;;;;;;;0.73;0.73;;;16.00;66.80;;;;;;5075624;28;20452;-78
2022/11/08 07:59:18;;;;;;;2.10;0.70;;;18.90;60.10;;;;;;5075859;28;20819;-78
2022/11/08 08:01:45;;;;;;;0.70;0.70;;;20.50;53.70;;;;;;5075226;28;20527;-77
2022/11/08 08:04:12;;;;;;;0.93;0.70;;;20.70;53.10;;;;;;5075225;28;20771;-77
2022/11/08 08:06:39;;;;;;;0.80;0.70;;;22.00;51.10;;;;;;5077064;28;20452;-79
2022/11/08 08:09:06;;;;;;;0.70;0.70;;;22.60;49.50;;;;;;5075725;28;20453;-78
2022/11/08 08:11:32;;;;;;;0.70;0.70;;;22.70;49.60;;;;;;5074591;28;20468;-78
2022/11/08 08:14:01;;;;;;;0.60;0.60;;;21.70;51.20;;;;;;5074832;28;20477;-76
2022/11/08 08:16:27;;;;;;;0.60;0.60;;;20.70;53.40;;;;;;5074576;28;20446;-76
2022/11/08 08:18:54;;;;;;;0.60;0.60;;;19.50;55.90;;;;;;5074091;28;20949;-77
2022/11/08 08:21:21;;;;;;;0.60;0.60;;;18.50;56.90;;;;;;5074395;28;20465;-77
2022/11/08 08:23:47;;;;;;;0.70;0.70;;;17.10;60.30;;;;;;5074234;28;20438;-77
2022/11/08 08:26:14;;;;;;;0.70;0.60;;;16.20;62.90;;;;;;5075148;28;20442;-77
2022/11/08 08:28:41;;;;;;;0.60;0.60;;;14.80;65.80;;;;;;5074011;28;20933;-78
2022/11/08 08:31:09;;;;;;;0.60;0.60;;;14.30;68.00;;;;;;5075110;28;20470;-78
2022/11/08 08:33:36;;;;;;;0.60;0.60;;;13.80;68.90;;;;;;5074017;28;20850;-77
2022/11/08 08:36:03;;;;;;;0.70;0.60;;;13.50;69.70;;;;;;5074758;28;20450;-78
2022/11/08 08:38:30;;;;;;;0.60;0.60;;;13.10;71.60;;;;;;5074802;28;20450;-79
2022/11/08 08:40:57;;;;;;;0.70;0.70;;;12.80;72.20;;;;;;5073938;28;20838;-79
2022/11/08 08:43:26;;;;;;;0.70;0.70;;;12.60;74.10;;;;;;5074273;28;20442;-78
2022/11/08 08:45:53;;;;;;;0.60;0.60;;;12.60;74.00;;;;;;5074357;28;20457;-78
2022/11/08 08:48:21;;;;;;;0.70;0.60;;;12.70;74.80;;;;;;5074316;28;20937;-78
2022/11/08 08:50:48;;;;;;;0.63;0.60;;;12.70;74.00;;;;;;5074135;28;20473;-78
2022/11/08 08:53:15;;;;;;;0.67;0.67;;;12.90;74.30;;;;;;5074278;28;20505;-78
2022/11/08 08:55:42;;;;;;;0.60;0.50;;;12.90;73.90;;;;;;5073921;28;20468;-77
2022/11/08 08:58:09;;;;;;;0.70;0.60;;;13.00;73.10;;;;;;5074224;28;20446;-78
2022/11/08 09:00:36;;;;;;;0.70;0.70;;;13.10;71.80;;;;;;5073623;28;20511;-77
2022/11/08 09:03:04;;;;;;;0.60;0.60;;;13.30;73.20;;;;;;5073853;28;20441;-78
2022/11/08 09:05:32;;;;;;;0.70;0.70;;;13.30;72.10;;;;;;5074186;28;20441;-78
2022/11/08 09:08:00;;;;;;;0.93;0.70;;;13.30;72.50;;;;;;5074037;28;20458;-79
2022/11/08 09:10:27;;;;;;;0.60;0.60;;;13.20;71.90;;;;;;5073811;28;20453;-78
2022/11/08 09:12:54;;;;;;;0.67;0.67;;;13.20;72.10;;;;;;5073778;28;20446;-78
2022/11/08 09:15:21;;;;;;;0.60;0.60;;;13.30;72.20;;;;;;5073862;28;20453;-77
2022/11/08 09:17:48;;;;;;;0.90;0.50;;;13.30;72.40;;;;;;5073659;28;20811;-77
2022/11/08 09:20:15;;;;;;;0.60;0.60;;;13.30;72.60;;;;;;5073490;28;20453;-78
2022/11/08 09:22:43;;;;;;;0.60;0.60;;;13.40;72.60;;;;;;5076368;28;20498;-78
2022/11/08 09:25:10;;;;;;;0.60;0.60;;;13.60;71.30;;;;;;5074968;28;20445;-78
2022/11/08 09:27:37;;;;;;;0.60;0.60;;;13.70;70.90;;;;;;5073912;28;20964;-78
2022/11/08 09:30:05;;;;;;;0.60;0.60;;;13.80;69.20;;;;;;5076064;28;20963;-79
2022/11/08 09:32:32;;;;;;;0.60;0.60;;;13.80;68.40;;;;;;5073994;28;20489;-77
2022/11/08 09:34:59;;;;;;;0.60;0.60;;;14.00;70.60;;;;;;5073854;28;20509;-78
2022/11/08 09:37:26;;;;;;;0.60;0.60;;;14.10;68.20;;;;;;5073389;28;20441;-77
2022/11/08 09:39:54;;;;;;;0.70;0.70;;;14.00;67.10;;;;;;5073588;28;20449;-78
2022/11/08 09:42:38;;;;;;;0.70;0.70;;;14.00;67.40;;;;;;5073635;28;20465;-78
2022/11/08 09:45:27;;;;;;;0.80;0.67;;;13.80;67.50;;;;;;5073721;28;20418;-77
2022/11/08 09:47:57;;;;;;;0.97;0.60;;;13.90;67.90;;;;;;5073673;28;20434;-77
2022/11/08 09:50:30;;;;;;;0.83;0.60;;;13.90;67.80;;;;;;5073906;28;20450;-78
2022/11/08 09:53:09;;;;;;;0.60;0.60;;;14.00;69.40;;;;;;5081993;28;20426;-78
2022/11/08 09:55:41;;;;;;;0.80;0.60;;;14.10;68.70;;;;;;5077353;28;20442;-78
2022/11/08 09:58:20;;;;;;;0.80;0.60;;;14.30;67.90;;;;;;5078287;28;20437;-79
2022/11/08 10:00:49;;;;;;;0.60;0.50;;;14.50;67.80;;;;;;5079120;28;20469;-75
2022/11/08 10:03:17;;;;;;;0.60;0.60;;;14.60;68.00;;;;;;5077442;28;20428;-78
2022/11/08 10:06:02;;;;;;;0.70;0.70;;;14.60;66.80;;;;;;5077371;28;20446;-78
2022/11/08 10:08:33;;;;;;;0.63;0.60;;;14.60;67.00;;;;;;5078687;28;20434;-77
2022/11/08 10:11:17;;;;;;;0.83;0.70;;;14.90;67.10;;;;;;5077377;28;20468;-77
2022/11/08 10:13:58;;;;;;;0.60;0.60;;;15.10;67.50;;;;;;5077738;28;20470;-77
2022/11/08 10:16:34;;;;;;;0.70;0.70;;;15.00;68.40;;;;;;5076881;28;20436;-77
2022/11/08 10:19:17;;;;;;;0.60;0.60;;;15.00;68.50;;;;;;5078827;28;20518;-77
2022/11/08 10:21:56;;;;;;;0.67;0.67;;;15.10;67.90;;;;;;5076367;28;20473;-77
2022/11/08 10:24:34;;;;;;;0.70;0.70;;;15.20;66.90;;;;;;5076683;28;20421;-77
2022/11/08 10:27:03;;;;;;;0.60;0.60;;;15.30;66.60;;;;;;5076351;28;20921;-76
2022/11/08 10:29:36;;;;;;;0.60;0.60;;;15.30;66.20;;;;;;5076917;28;20452;-77
2022/11/08 10:32:12;;;;;;;0.60;0.60;;;15.50;67.20;;;;;;5076714;28;20469;-77
2022/11/08 10:34:46;;;;;;;0.60;0.60;;;15.70;67.40;;;;;;5076444;28;20472;-77
2022/11/08 10:37:15;;;;;;;0.60;0.60;;;15.80;65.50;;;;;;5076066;28;20936;-77
2022/11/08 10:39:47;;;;;;;0.60;0.50;;;15.80;64.70;;;;;;5076379;28;20548;-77
2022/11/08 10:42:20;;;;;;;0.90;0.70;;;15.80;64.90;;;;;;5076407;28;20466;-76
2022/11/08 10:44:47;;;;;;;1.17;0.67;;;15.60;63.90;;;;;;5076384;28;20422;-77
2022/11/08 10:47:19;;;;;;;0.60;0.60;;;15.60;66.20;;;;;;5076231;28;20445;-79
2022/11/08 10:49:46;;;;;;;0.57;0.57;;;15.70;65.60;;;;;;5076371;28;20426;-76
2022/11/08 10:52:18;;;;;;;0.70;0.70;;;15.60;64.70;;;;;;5076118;28;20818;-78
2022/11/08 10:54:49;;;;;;;0.60;0.50;;;15.50;66.40;;;;;;5076082;28;20515;-78
2022/11/08 10:57:24;;;;;;;0.60;0.60;;;15.60;65.30;;;;;;5077277;28;20422;-77
2022/11/08 10:59:52;;;;;;;0.60;0.60;;;15.60;64.40;;;;;;5076853;28;20449;-79
2022/11/08 11:02:26;;;;;;;0.60;0.60;;;15.70;64.30;;;;;;5075704;28;20477;-78
2022/11/08 11:04:54;;;;;;;0.67;0.60;;;15.80;66.90;;;;;;5076914;28;20960;-78
2022/11/08 11:07:31;;;;;;;0.60;0.60;;;15.90;64.70;;;;;;5076397;28;20503;-77
2022/11/08 11:09:58;;;;;;;0.60;0.60;;;15.90;64.20;;;;;;5076820;28;20432;-77
2022/11/08 11:12:26;;;;;;;0.60;0.60;;;15.80;63.70;;;;;;5076741;28;20488;-78
2022/11/08 11:14:57;;;;;;;0.60;0.60;;;15.70;64.90;;;;;;5076234;28;20478;-79
2022/11/08 11:17:30;;;;;;;0.60;0.60;;;15.70;63.20;;;;;;5076878;28;20450;-78
2022/11/08 11:19:57;;;;;;;0.60;0.60;;;15.90;63.80;;;;;;5075827;28;20793;-78
2022/11/08 11:22:28;;;;;;;0.63;0.63;;;16.00;64.30;;;;;;5075242;28;20472;-77
2022/11/08 11:24:56;;;;;;;0.60;0.60;;;16.00;63.80;;;;;;5075638;28;20422;-78
2022/11/08 11:27:29;;;;;;;0.60;0.60;;;16.00;64.50;;;;;;5075652;28;20446;-78
2022/11/08 11:30:23;;;;;;;0.60;0.60;;;15.90;65.30;;;;;;5075603;28;20422;-78
2022/11/08 11:33:05;;;;;;;0.60;0.50;;;16.20;63.90;;;;;;5075383;28;20449;-76
2022/11/08 11:35:44;;;;;;;0.80;0.70;;;16.20;64.30;;;;;;5075592;28;20469;-78
2022/11/08 11:38:30;;;;;;;0.60;0.60;;;16.30;63.60;;;;;;5075745;28;20448;-77
2022/11/08 11:41:03;;;;;;;1.37;0.50;;;16.40;63.40;;;;;;5075284;28;20466;-76
2022/11/08 11:43:37;;;;;;;0.60;0.60;;;16.60;62.50;;;;;;5074840;28;20987;-78
2022/11/08 11:46:12;;;;;;;0.60;0.53;;;16.70;63.10;;;;;;5076184;28;20437;-80
2022/11/08 11:48:44;;;;;;;0.70;0.60;;;16.80;61.30;;;;;;5077682;28;20441;-79
2022/11/08 11:51:11;;;;;;;0.60;0.57;;;17.10;61.20;;;;;;5078762;28;20489;-77
2022/11/08 11:53:38;;;;;;;0.60;0.60;;;17.30;59.20;;;;;;5079636;28;20437;-79
2022/11/08 11:56:39;;;;;;;0.63;0.57;;;17.70;59.00;;;;;;5075220;28;20453;-77
2022/11/08 11:59:39;;;;;;;0.60;0.50;;;18.90;57.30;;;;;;5077417;28;20486;-78
2022/11/08 12:02:39;;;;;;;0.60;0.50;;;21.60;51.00;;;;;;5074888;28;20478;-77
2022/11/08 12:05:25;;;;;;;0.60;0.60;;;23.80;46.00;;;;;;5075097;28;20430;-78
2022/11/08 12:08:04;;;;;;;0.60;0.60;;;26.80;42.50;;;;;;5075288;28;20449;-76
2022/11/08 12:10:48;;;;;;;0.57;0.50;;;28.10;38.00;;;;;;5074838;28;20430;-76
2022/11/08 12:13:20;;;;;;;0.50;0.50;;;28.90;38.30;;;;;;5074588;28;20551;-75
2022/11/08 12:15:57;;;;;;;0.70;0.50;;;30.80;36.60;;;;;;5074515;28;20492;-76
2022/11/08 12:18:49;;;;;;;0.60;0.50;;;30.50;35.20;;;;;;5082681;28;20440;-76
2022/11/08 12:21:24;;;;;;;0.60;0.50;;;31.30;35.00;;;;;;5084825;28;20458;-76
2022/11/08 12:24:11;;;;;;;1.00;0.60;;;30.40;35.00;;;;;;5084513;28;20442;-75
2022/11/08 12:26:45;;;;;;;0.60;0.60;;;31.30;35.60;;;;;;5083548;28;20616;-76
2022/11/08 12:29:23;;;;;;;0.60;0.50;;;31.40;34.40;;;;;;5082833;28;20433;-75
2022/11/08 12:32:13;;;;;;;0.60;0.60;;;31.00;35.80;;;;;;5082012;28;20465;-76
2022/11/08 12:34:52;;;;;;;0.50;0.50;;;30.90;33.80;;;;;;5083911;28;20462;-75
2022/11/08 12:37:29;;;;;;;0.60;0.57;;;31.20;33.70;;;;;;5084039;28;20437;-77
2022/11/08 12:40:00;;;;;;;0.50;0.50;;;31.30;34.00;;;;;;5083696;28;20430;-75
2022/11/08 12:42:52;;;;;;;0.60;0.60;;;31.70;34.50;;;;;;5082804;28;20466;-76
2022/11/08 12:45:29;;;;;;;0.60;0.60;;;31.50;34.00;;;;;;5083329;28;20445;-77
2022/11/08 12:48:06;;;;;;;0.60;0.50;;;31.50;35.40;;;;;;5083004;28;20453;-75
2022/11/08 12:50:43;;;;;;;0.60;0.60;;;32.50;32.70;;;;;;5084867;28;20422;-77
2022/11/08 12:53:47;;;;;;;0.90;0.50;;;32.00;34.80;;;;;;5083218;28;20426;-79
2022/11/08 12:56:19;;;;;;;0.60;0.50;;;31.20;34.30;;;;;;5053097;28;20937;-76
2022/11/08 12:58:48;;;;;;;0.77;0.60;;;29.40;36.60;;;;;;5083363;28;20525;-75
2022/11/08 13:01:16;;;;;;;0.60;0.60;;;27.30;39.30;;;;;;5084573;28;20871;-76
2022/11/08 13:04:19;;;;;;;0.60;0.60;;;25.70;42.10;;;;;;5082311;28;20472;-70
2022/11/08 13:06:52;;;;;;;0.60;0.50;;;24.00;44.20;;;;;;5082491;28;20434;-75
2022/11/08 13:09:27;;;;;;;0.70;0.60;;;22.80;47.00;;;;;;5081912;28;20429;-74
2022/11/08 13:12:04;;;;;;;0.70;0.70;;;21.90;47.90;;;;;;5081783;28;20521;-73
2022/11/08 13:14:32;;;;;;;0.80;0.60;;;21.30;49.30;;;;;;5079702;28;20617;-72
2022/11/08 13:17:24;;;;;;;0.70;0.70;;;21.60;52.40;;;;;;5077216;28;20941;-71
2022/11/08 13:19:58;;;;;;;0.60;0.50;;;21.80;50.10;;;;;;5080298;28;20510;-73
2022/11/08 13:22:46;;;;;;;0.70;0.60;;;22.00;49.80;;;;;;5079250;28;20496;-75
2022/11/08 13:25:34;;;;;;;0.60;0.60;;;21.70;49.40;;;;;;5081353;28;21002;-72
2022/11/08 13:28:01;;;;;;;0.60;0.50;;;20.70;50.70;;;;;;5082246;28;20434;-75
2022/11/08 13:30:37;;;;;;;0.60;0.50;;;20.00;53.00;;;;;;5080435;28;20449;-75
2022/11/08 13:33:13;;;;;;;0.63;0.50;;;19.90;52.70;;;;;;5081845;28;20436;-72
2022/11/08 13:35:49;;;;;;;0.63;0.60;;;19.90;53.00;;;;;;5081361;28;20461;-73
2022/11/08 13:38:27;;;;;;;0.67;0.50;;;19.50;52.60;;;;;;5081412;28;20433;-76
2022/11/08 13:41:14;;;;;;;0.60;0.53;;;19.00;52.80;;;;;;5081112;28;20560;-75
2022/11/08 13:43:42;;;;;;;0.70;0.60;;;18.80;54.20;;;;;;5080815;28;20465;-77
2022/11/08 13:46:47;;;;;;;0.60;0.50;;;18.50;54.60;;;;;;5080973;28;20995;-75
2022/11/08 13:49:19;;;;;;;0.60;0.50;;;18.30;54.80;;;;;;5084465;28;20509;-76
2022/11/08 13:51:47;;;;;;;0.60;0.60;;;18.10;56.90;;;;;;5083005;28;20465;-76
2022/11/08 13:54:45;;;;;;;0.70;0.60;;;18.10;56.70;;;;;;5081268;28;20533;-76
2022/11/08 13:57:19;;;;;;;0.60;0.53;;;18.10;56.30;;;;;;5079861;28;20445;-75
2022/11/08 13:59:55;;;;;;;0.60;0.53;;;18.10;55.80;;;;;;5078133;28;20447;-74
2022/11/08 14:02:43;;;;;;;0.60;0.60;;;18.00;55.90;;;;;;5078173;28;20579;-77
2022/11/08 14:05:28;;;;;;;0.60;0.50;;;18.00;55.10;;;;;;5079275;28;20453;-75
2022/11/08 14:08:19;;;;;;;0.60;0.50;;;17.80;56.20;;;;;;5079651;28;20917;-75
2022/11/08 14:11:25;;;;;;;0.70;0.70;;;17.80;57.00;;;;;;5079741;28;20984;-78
2022/11/08 14:14:14;;;;;;;0.60;0.50;;;17.80;56.20;;;;;;5064663;28;20464;-77
2022/11/08 14:16:54;;;;;;;0.60;0.60;;;17.70;57.30;;;;;;5080517;28;20426;-78
2022/11/08 14:19:23;;;;;;;0.63;0.57;;;17.80;57.00;;;;;;5082531;28;20430;-76
2022/11/08 14:21:52;;;;;;;0.60;0.50;;;17.90;57.50;;;;;;5082078;28;20480;-76
2022/11/08 14:24:24;;;;;;;0.67;0.67;;;18.10;56.70;;;;;;5082364;28;20550;-76
2022/11/08 14:26:52;;;;;;;0.60;0.60;;;18.30;56.00;;;;;;5083441;28;20524;-76
2022/11/08 14:29:21;;;;;;;0.60;0.60;;;18.40;57.10;;;;;;5084105;28;20823;-76
2022/11/08 14:31:48;;;;;;;0.60;0.50;;;18.50;57.00;;;;;;5088217;28;20960;-74
2022/11/08 14:34:29;;;;;;;0.60;0.60;;;18.60;56.70;;;;;;5090861;28;20442;-73
2022/11/08 14:36:56;;;;;;;1.17;0.50;;;18.70;56.40;;;;;;5090682;28;20441;-74
2022/11/08 14:39:29;;;;;;;0.60;0.60;;;18.50;56.50;;;;;;5094358;28;20917;-74
2022/11/08 14:41:57;;;;;;;0.60;0.60;;;18.50;56.50;;;;;;5093480;28;20472;-75
2022/11/08 14:44:25;;;;;;;0.70;0.60;;;18.50;56.40;;;;;;5094279;28;20509;-76
2022/11/08 14:46:52;;;;;;;0.60;0.60;;;18.40;57.00;;;;;;5088153;28;20443;-77
2022/11/08 14:49:21;;;;;;;0.60;0.60;;;18.40;57.50;;;;;;5085790;28;20442;-77
2022/11/08 14:52:02;;;;;;;0.70;0.60;;;18.40;57.60;;;;;;5084986;28;20470;-75
2022/11/08 14:54:39;;;;;;;0.60;0.50;;;18.30;57.40;;;;;;5084278;28;20430;-76
2022/11/08 14:57:28;;;;;;;0.60;0.50;;;18.30;57.40;;;;;;5085527;28;20458;-76
2022/11/08 14:59:55;;;;;;;0.80;0.70;;;18.30;57.40;;;;;;5085470;28;20430;-75
2022/11/08 15:02:22;;;;;;;1.10;0.70;;;18.10;57.60;;;;;;5085938;28;20558;-75
2022/11/08 15:04:50;;;;;;;1.00;0.50;;;18.10;58.00;;;;;;5085594;28;20467;-75
2022/11/08 15:07:20;;;;;;;1.30;0.70;;;18.10;58.00;;;;;;5086757;28;20438;-76
2022/11/08 15:09:49;;;;;;;0.70;0.70;;;18.00;58.60;;;;;;5084890;28;20450;-74
2022/11/08 15:12:17;;;;;;;0.60;0.60;;;18.10;58.80;;;;;;5086125;28;20462;-75
2022/11/08 15:14:48;;;;;;;0.60;0.50;;;18.20;58.50;;;;;;5083727;28;20524;-76
2022/11/08 15:17:33;;;;;;;0.60;0.50;;;18.30;60.30;;;;;;5082595;28;20502;-76
2022/11/08 15:20:06;;;;;;;0.60;0.60;;;18.30;61.90;;;;;;5084846;28;20453;-76
2022/11/08 15:22:35;;;;;;;0.60;0.53;;;18.30;62.40;;;;;;5083905;28;20496;-75
2022/11/08 15:25:28;;;;;;;0.60;0.60;;;18.30;63.00;;;;;;5082456;28;20452;-74
2022/11/08 15:27:57;;;;;;;0.60;0.50;;;18.20;63.00;;;;;;5075628;28;20485;-76
2022/11/08 15:30:36;;;;;;;1.23;0.60;;;18.20;63.60;;;;;;5075440;28;20448;-75
2022/11/08 15:33:03;;;;;;;0.70;0.70;;;18.10;63.80;;;;;;5075480;28;20430;-75
2022/11/08 15:35:34;;;;;;;0.60;0.60;;;18.00;63.70;;;;;;5075574;28;20477;-75
2022/11/08 15:38:02;;;;;;;0.70;0.70;;;17.90;63.80;;;;;;5075213;28;20441;-76
2022/11/08 15:40:32;;;;;;;0.77;0.77;;;17.80;64.30;;;;;;5075200;28;20448;-77
2022/11/08 15:43:00;;;;;;;1.00;0.93;;;17.70;64.60;;;;;;5075238;28;20473;-77
2022/11/08 15:45:31;;;;;;;1.77;0.80;;;17.60;64.90;;;;;;5075264;28;20782;-76
2022/11/08 15:48:11;;;;;;;0.70;0.70;;;17.40;64.90;;;;;;5075142;28;20426;-76
2022/11/08 15:50:38;;;;;;;0.73;0.70;;;17.30;65.20;;;;;;5074537;28;20429;-76
2022/11/08 15:53:06;;;;;;;0.70;0.70;;;17.20;65.50;;;;;;5075081;28;20491;-75
2022/11/08 15:55:37;;;;;;;0.97;0.77;;;17.10;65.60;;;;;;5074836;28;20492;-76
2022/11/08 15:58:04;;;;;;;1.43;0.80;;;16.90;65.70;;;;;;5074892;28;20426;-75
2022/11/08 16:00:35;;;;;;;0.77;0.67;;;16.80;66.30;;;;;;5075469;28;20505;-76
2022/11/08 16:03:02;;;;;;;0.60;0.60;;;16.70;66.50;;;;;;5074976;28;20901;-75
2022/11/08 16:05:31;;;;;;;0.60;0.60;;;16.60;66.60;;;;;;5074626;28;20434;-76
2022/11/08 16:07:58;;;;;;;1.30;0.70;;;16.50;66.80;;;;;;5074855;28;20473;-75
2022/11/08 16:10:28;;;;;;;0.83;0.60;;;16.50;67.10;;;;;;5074929;28;20445;-77
2022/11/08 16:12:59;;;;;;;0.60;0.60;;;16.40;67.40;;;;;;5075024;28;20430;-76
2022/11/08 16:15:29;;;;;;;0.60;0.60;;;16.30;67.80;;;;;;5074540;28;20565;-77
2022/11/08 16:17:56;;;;;;;0.60;0.60;;;16.20;67.90;;;;;;5075980;28;20949;-76
2022/11/08 16:20:26;;;;;;;0.60;0.60;;;16.20;68.00;;;;;;5074309;28;20473;-76
2022/11/08 16:22:53;;;;;;;0.60;0.60;;;16.10;68.00;;;;;;5074321;28;20838;-76
2022/11/08 16:25:20;;;;;;;0.70;0.70;;;16.00;67.90;;;;;;5073986;28;20813;-76
2022/11/08 16:27:52;;;;;;;0.80;0.70;;;15.90;68.30;;;;;;5074075;28;20933;-76
2022/11/08 16:30:21;;;;;;;0.80;0.80;;;15.70;69.10;;;;;;5074805;28;20433;-77
2022/11/08 16:32:48;;;;;;;0.80;0.80;;;15.70;69.20;;;;;;5073904;28;20977;-77
2022/11/08 16:35:15;;;;;;;1.00;0.70;;;15.70;69.40;;;;;;5074369;28;20477;-76
2022/11/08 16:37:42;;;;;;;0.70;0.70;;;15.70;69.70;;;;;;5074190;28;20453;-77
2022/11/08 16:40:15;;;;;;;1.43;0.60;;;15.60;70.00;;;;;;5074169;28;20520;-77
2022/11/08 16:42:42;;;;;;;0.77;0.77;;;15.60;70.20;;;;;;5074930;28;20488;-78
2022/11/08 16:45:10;;;;;;;0.70;0.70;;;15.50;70.00;;;;;;5074089;28;20446;-75
2022/11/08 16:47:38;;;;;;;0.60;0.60;;;15.50;69.60;;;;;;5074411;28;20448;-77
2022/11/08 16:50:07;;;;;;;0.70;0.70;;;15.40;69.90;;;;;;5073994;28;20450;-77
2022/11/08 16:52:34;;;;;;;0.60;0.60;;;15.30;70.10;;;;;;5074101;28;20985;-79
2022/11/08 16:55:00;;;;;;;0.60;0.60;;;15.30;70.20;;;;;;5074810;28;20449;-77
2022/11/08 16:57:27;;;;;;;0.70;0.70;;;15.40;70.00;;;;;;5074810;28;20450;-77
2022/11/08 16:59:54;;;;;;;0.90;0.70;;;15.20;70.50;;;;;;5073828;28;20457;-77
2022/11/08 17:02:27;;;;;;;0.70;0.60;;;15.10;70.80;;;;;;5073335;28;20517;-77
2022/11/08 17:04:55;;;;;;;0.70;0.70;;;15.00;71.10;;;;;;5074052;28;20434;-77
2022/11/08 17:07:24;;;;;;;0.60;0.60;;;14.90;71.50;;;;;;5074020;28;20453;-78
2022/11/08 17:09:51;;;;;;;0.60;0.60;;;14.70;72.30;;;;;;5073618;28;20457;-76
2022/11/08 17:12:17;;;;;;;0.60;0.60;;;14.60;72.30;;;;;;5073645;28;20496;-77
2022/11/08 17:14:44;;;;;;;0.67;0.60;;;14.50;72.60;;;;;;5074084;28;20448;-76
2022/11/08 17:17:11;;;;;;;0.70;0.70;;;14.50;72.80;;;;;;5073342;28;20890;-74
2022/11/08 17:19:38;;;;;;;0.80;0.70;;;14.50;72.70;;;;;;5073818;28;20443;-77
2022/11/08 17:22:06;;;;;;;0.90;0.70;;;14.30;73.10;;;;;;5074779;28;20238;-78